createdAt,value
2019-01-09T00:00:47.388Z,1.00
2019-01-09T00:03:13.677Z,0.90
2019-01-09T00:05:39.835Z,1.00
2019-01-09T00:08:05.924Z,1.00
2019-01-09T00:10:32.016Z,1.00
2019-01-09T00:12:58.200Z,0.90
2019-01-09T00:15:24.310Z,1.00
2019-01-09T00:17:50.400Z,0.90
2019-01-09T00:20:16.480Z,1.00
2019-01-09T00:22:42.567Z,1.00
2019-01-09T00:25:08.740Z,1.00
2019-01-09T00:27:34.824Z,1.00
2019-01-09T00:30:01.004Z,1.00
2019-01-09T00:32:27.108Z,1.00
2019-01-09T00:34:53.179Z,0.90
2019-01-09T00:37:19.272Z,1.10
2019-01-09T00:39:45.338Z,1.10
2019-01-09T00:42:11.591Z,1.10
2019-01-09T00:44:37.661Z,1.10
2019-01-09T00:47:03.864Z,1.10
2019-01-09T00:49:30.024Z,1.20
2019-01-09T00:51:56.240Z,1.10
2019-01-09T00:54:22.303Z,1.20
2019-01-09T00:56:48.427Z,1.10
2019-01-09T00:59:14.588Z,1.10
2019-01-09T01:01:44.494Z,1.10
2019-01-09T01:04:26.500Z,1.20
2019-01-09T01:07:01.903Z,1.10
2019-01-09T01:09:38.031Z,1.10
2019-01-09T01:12:35.583Z,1.10
2019-01-09T01:15:22.212Z,1.10
2019-01-09T01:18:07.202Z,1.10
2019-01-09T01:20:39.881Z,1.10
2019-01-09T01:23:15.182Z,1.10
2019-01-09T01:25:53.888Z,1.10
2019-01-09T01:28:26.829Z,1.10
2019-01-09T01:31:30.273Z,1.00
2019-01-09T01:34:00.264Z,1.00
2019-01-09T01:36:30.144Z,1.00
2019-01-09T01:39:18.620Z,1.00
2019-01-09T01:41:54.399Z,1.00
2019-01-09T01:44:33.088Z,1.00
2019-01-09T01:47:33.108Z,0.90
2019-01-09T01:50:17.603Z,0.90
2019-01-09T01:53:06.144Z,1.00
2019-01-09T01:55:41.963Z,1.00
2019-01-09T01:58:36.178Z,1.00
2019-01-09T02:01:15.083Z,1.00
2019-01-09T02:03:48.046Z,0.90
2019-01-09T02:06:20.690Z,1.00
2019-01-09T02:09:02.499Z,1.00
2019-01-09T02:11:38.636Z,1.00
2019-01-09T02:14:14.796Z,1.10
2019-01-09T02:16:56.275Z,1.10
2019-01-09T02:19:28.906Z,1.10
2019-01-09T02:22:16.635Z,1.00
2019-01-09T02:24:49.361Z,1.00
2019-01-09T02:27:25.244Z,1.00
2019-01-09T02:30:07.518Z,1.00
2019-01-09T02:32:33.676Z,1.00
2019-01-09T02:34:59.862Z,1.00
2019-01-09T02:37:26.628Z,1.00
2019-01-09T02:39:52.764Z,0.90
2019-01-09T02:42:18.831Z,0.80
2019-01-09T02:44:45.020Z,0.90
2019-01-09T02:47:11.124Z,0.80
2019-01-09T02:49:37.313Z,0.80
2019-01-09T02:52:03.398Z,0.80
2019-01-09T02:54:29.572Z,0.80
2019-01-09T02:56:55.658Z,0.80
2019-01-09T02:59:21.838Z,0.70
2019-01-09T03:01:47.905Z,0.80
2019-01-09T03:04:13.994Z,0.90
2019-01-09T03:06:40.080Z,0.80
2019-01-09T03:09:26.141Z,0.80
2019-01-09T03:11:52.229Z,-0.40
2019-01-09T03:14:18.497Z,0.90
2019-01-09T03:16:44.569Z,1.00
2019-01-09T03:19:10.647Z,0.90
2019-01-09T03:21:36.808Z,0.80
2019-01-09T03:24:02.972Z,0.70
2019-01-09T03:26:29.165Z,0.70
2019-01-09T03:28:55.237Z,0.80
2019-01-09T03:31:21.433Z,0.70
2019-01-09T03:33:47.582Z,0.60
2019-01-09T03:36:13.680Z,0.60
2019-01-09T03:38:39.752Z,0.60
2019-01-09T03:41:05.844Z,0.60
2019-01-09T03:43:32.012Z,0.60
2019-01-09T03:45:58.124Z,0.60
2019-01-09T03:48:24.216Z,0.60
2019-01-09T03:50:50.308Z,0.50
2019-01-09T03:53:16.403Z,0.50
2019-01-09T03:55:42.479Z,0.50
2019-01-09T03:58:08.555Z,0.50
2019-01-09T04:00:34.635Z,0.50
2019-01-09T04:03:00.723Z,0.50
2019-01-09T04:05:26.812Z,0.40
2019-01-09T04:07:52.883Z,0.40
2019-01-09T04:10:18.995Z,0.50
2019-01-09T04:12:45.155Z,0.50
2019-01-09T04:15:11.943Z,0.70
2019-01-09T04:17:38.098Z,0.60
2019-01-09T04:20:04.900Z,0.70
2019-01-09T04:22:30.975Z,0.70
2019-01-09T04:24:57.039Z,0.50
2019-01-09T04:27:23.138Z,0.70
2019-01-09T04:29:49.302Z,0.60
2019-01-09T04:32:15.421Z,0.50
2019-01-09T04:34:41.581Z,0.70
2019-01-09T04:37:07.698Z,0.70
2019-01-09T04:39:33.776Z,0.60
2019-01-09T04:41:59.961Z,0.50
2019-01-09T04:44:26.036Z,0.30
2019-01-09T04:46:52.139Z,0.20
2019-01-09T04:49:18.210Z,0.10
2019-01-09T04:51:44.315Z,0.00
2019-01-09T04:54:10.380Z,0.20
2019-01-09T04:56:36.473Z,0.10
2019-01-09T04:59:02.652Z,0.20
2019-01-09T05:01:28.791Z,0.30
2019-01-09T05:03:54.862Z,0.30
2019-01-09T05:06:20.934Z,0.00
2019-01-09T05:08:47.024Z,-0.10
2019-01-09T05:11:13.092Z,-0.10
2019-01-09T05:13:39.166Z,0.00
2019-01-09T05:16:05.241Z,-0.10
2019-01-09T05:18:31.320Z,0.00
2019-01-09T05:20:57.383Z,0.10
2019-01-09T05:23:23.436Z,0.10
2019-01-09T05:25:49.513Z,0.10
2019-01-09T05:28:15.571Z,0.10
2019-01-09T05:30:41.660Z,0.20
2019-01-09T05:33:07.724Z,0.20
2019-01-09T05:35:33.811Z,0.20
2019-01-09T05:37:59.875Z,0.10
2019-01-09T05:40:25.936Z,0.10
2019-01-09T05:42:52.032Z,0.10
2019-01-09T05:45:18.110Z,0.10
2019-01-09T05:47:44.303Z,0.20
2019-01-09T05:50:10.368Z,0.30
2019-01-09T05:52:36.569Z,0.30
2019-01-09T05:55:02.840Z,0.30
2019-01-09T05:57:29.167Z,0.40
2019-01-09T05:59:55.252Z,0.40
2019-01-09T06:02:21.328Z,0.40
2019-01-09T06:04:47.419Z,0.40
2019-01-09T06:07:18.284Z,0.40
2019-01-09T06:09:41.451Z,0.40
2019-01-09T06:12:07.531Z,0.40
2019-01-09T06:14:33.602Z,0.40
2019-01-09T06:16:59.700Z,0.40
2019-01-09T06:19:25.775Z,0.40
2019-01-09T06:21:51.847Z,0.00
2019-01-09T06:24:17.931Z,0.50
2019-01-09T06:26:44.001Z,0.40
2019-01-09T06:29:10.087Z,0.40
2019-01-09T06:31:36.148Z,0.50
2019-01-09T06:34:02.250Z,0.50
2019-01-09T06:36:28.404Z,0.50
2019-01-09T06:38:54.479Z,0.40
2019-01-09T06:41:20.571Z,0.40
2019-01-09T06:43:46.684Z,0.40
2019-01-09T06:46:12.775Z,0.40
2019-01-09T06:48:38.859Z,0.50
2019-01-09T06:51:05.024Z,0.50
2019-01-09T06:53:31.207Z,0.30
2019-01-09T06:55:57.371Z,0.40
2019-01-09T06:58:23.507Z,0.40
2019-01-09T07:00:49.592Z,0.40
2019-01-09T07:03:15.660Z,0.40
2019-01-09T07:05:41.745Z,0.50
2019-01-09T07:08:07.807Z,0.50
2019-01-09T07:10:33.887Z,0.50
2019-01-09T07:12:59.965Z,0.50
2019-01-09T07:15:26.047Z,0.10
2019-01-09T07:17:52.116Z,0.00
2019-01-09T07:20:18.198Z,0.00
2019-01-09T07:22:44.363Z,-0.10
2019-01-09T07:25:10.423Z,-0.20
2019-01-09T07:27:36.509Z,-0.20
2019-01-09T07:30:04.881Z,-0.10
2019-01-09T07:32:30.966Z,-0.10
2019-01-09T07:34:57.040Z,0.00
2019-01-09T07:37:23.119Z,0.00
2019-01-09T07:39:49.179Z,0.10
2019-01-09T07:42:15.279Z,0.00
2019-01-09T07:44:41.343Z,0.00
2019-01-09T07:47:07.407Z,0.10
2019-01-09T07:49:33.491Z,0.00
2019-01-09T07:51:59.559Z,0.00
2019-01-09T07:54:25.695Z,0.00
2019-01-09T07:56:51.813Z,0.10
2019-01-09T07:59:17.887Z,0.10
2019-01-09T08:01:44.072Z,0.10
2019-01-09T08:04:10.140Z,0.20
2019-01-09T08:06:36.244Z,0.20
2019-01-09T08:09:04.315Z,0.30
2019-01-09T08:11:30.389Z,0.60
2019-01-09T08:13:56.476Z,0.20
2019-01-09T08:16:22.544Z,0.20
2019-01-09T08:18:48.626Z,0.20
2019-01-09T08:21:14.697Z,0.30
2019-01-09T08:23:40.783Z,0.40
2019-01-09T08:26:06.847Z,0.50
2019-01-09T08:28:32.934Z,0.60
2019-01-09T08:30:58.996Z,0.50
2019-01-09T08:33:25.055Z,0.50
2019-01-09T08:35:51.143Z,0.40
2019-01-09T08:38:17.211Z,0.40
2019-01-09T08:40:43.987Z,0.40
2019-01-09T08:43:10.072Z,0.40
2019-01-09T08:45:36.161Z,0.60
2019-01-09T08:48:02.227Z,0.50
2019-01-09T08:50:28.315Z,0.40
2019-01-09T08:52:54.400Z,0.30
2019-01-09T08:55:20.469Z,0.30
2019-01-09T08:57:46.539Z,0.40
2019-01-09T09:00:12.720Z,0.20
2019-01-09T09:02:38.795Z,0.20
2019-01-09T09:05:05.082Z,0.30
2019-01-09T09:07:31.656Z,0.40
2019-01-09T09:09:57.718Z,0.60
2019-01-09T09:12:23.903Z,0.60
2019-01-09T09:14:50.068Z,0.60
2019-01-09T09:17:16.144Z,0.60
2019-01-09T09:19:42.216Z,0.60
2019-01-09T09:22:08.292Z,0.50
2019-01-09T09:24:34.463Z,0.40
2019-01-09T09:27:00.539Z,0.40
2019-01-09T09:29:26.623Z,0.40
2019-01-09T09:31:52.793Z,0.30
2019-01-09T09:34:18.912Z,0.20
2019-01-09T09:36:45.077Z,0.30
2019-01-09T09:39:11.160Z,0.30
2019-01-09T09:41:37.354Z,0.40
2019-01-09T09:44:03.519Z,0.40
2019-01-09T09:46:29.623Z,0.40
2019-01-09T09:48:55.712Z,0.40
2019-01-09T09:51:21.793Z,0.40
2019-01-09T09:53:47.880Z,0.50
2019-01-09T09:56:13.943Z,0.50
2019-01-09T09:58:40.032Z,0.40
2019-01-09T10:01:06.203Z,0.30
2019-01-09T10:03:32.296Z,0.20
2019-01-09T10:05:58.360Z,0.00
2019-01-09T10:08:29.292Z,0.10
2019-01-09T10:10:52.429Z,0.10
2019-01-09T10:13:18.599Z,0.30
2019-01-09T10:15:44.667Z,0.50
2019-01-09T10:18:10.777Z,0.60
2019-01-09T10:20:36.846Z,0.40
2019-01-09T10:23:03.033Z,0.50
2019-01-09T10:25:29.120Z,0.50
2019-01-09T10:27:55.229Z,0.70
2019-01-09T10:30:21.416Z,0.60
2019-01-09T10:32:47.488Z,0.70
2019-01-09T10:35:13.783Z,0.70
2019-01-09T10:37:40.585Z,0.70
2019-01-09T10:40:15.309Z,0.70
2019-01-09T10:42:41.561Z,0.80
2019-01-09T10:45:11.194Z,0.80
2019-01-09T10:47:37.376Z,0.80
2019-01-09T10:50:06.663Z,0.50
2019-01-09T10:52:32.748Z,0.60
2019-01-09T10:54:58.840Z,0.70
2019-01-09T10:57:25.685Z,0.70
2019-01-09T10:59:51.760Z,0.60
2019-01-09T11:02:17.840Z,0.60
2019-01-09T11:04:43.924Z,0.70
2019-01-09T11:07:09.996Z,0.70
2019-01-09T11:09:36.107Z,0.70
2019-01-09T11:12:02.493Z,0.70
2019-01-09T11:14:28.575Z,0.60
2019-01-09T11:16:54.699Z,0.80
2019-01-09T11:19:20.782Z,0.70
2019-01-09T11:21:46.851Z,0.90
2019-01-09T11:24:12.946Z,0.90
2019-01-09T11:26:39.046Z,0.70
2019-01-09T11:29:05.154Z,0.70
2019-01-09T11:31:31.219Z,0.60
2019-01-09T11:33:57.316Z,0.60
2019-01-09T11:36:23.395Z,0.60
2019-01-09T11:38:55.666Z,0.70
2019-01-09T11:41:17.463Z,0.70
2019-01-09T11:43:43.552Z,0.60
2019-01-09T11:46:09.640Z,0.50
2019-01-09T11:48:35.723Z,0.50
2019-01-09T11:51:01.916Z,0.70
2019-01-09T11:53:27.988Z,0.80
2019-01-09T11:55:54.088Z,0.90
2019-01-09T11:58:20.264Z,0.80
2019-01-09T12:00:46.457Z,0.60
2019-01-09T12:03:12.527Z,1.10
2019-01-09T12:05:38.639Z,1.00
2019-01-09T12:08:04.826Z,0.90
2019-01-09T12:10:30.984Z,0.90
2019-01-09T12:12:57.167Z,0.90
2019-01-09T12:15:23.335Z,1.00
2019-01-09T12:17:49.415Z,1.10
2019-01-09T12:20:17.387Z,1.20
2019-01-09T12:22:43.974Z,1.00
2019-01-09T12:25:11.447Z,1.00
2019-01-09T12:27:37.552Z,1.10
2019-01-09T12:30:12.980Z,1.20
2019-01-09T12:32:39.057Z,1.10
2019-01-09T12:35:05.627Z,1.00
2019-01-09T12:37:31.737Z,0.70
2019-01-09T12:39:57.803Z,0.60
2019-01-09T12:42:23.887Z,0.60
2019-01-09T12:44:50.036Z,0.50
2019-01-09T12:47:16.123Z,0.50
2019-01-09T12:49:42.343Z,0.60
2019-01-09T12:52:08.479Z,0.50
2019-01-09T12:54:34.553Z,0.50
2019-01-09T12:57:00.620Z,0.70
2019-01-09T12:59:26.713Z,0.70
2019-01-09T13:01:52.884Z,0.50
2019-01-09T13:04:19.078Z,0.60
2019-01-09T13:06:45.147Z,0.60
2019-01-09T13:09:11.236Z,0.60
2019-01-09T13:11:37.320Z,0.50
2019-01-09T13:14:04.040Z,0.20
2019-01-09T13:16:30.107Z,0.20
2019-01-09T13:18:56.186Z,0.20
2019-01-09T13:21:22.259Z,0.30
2019-01-09T13:23:48.336Z,0.30
2019-01-09T13:26:14.424Z,0.40
2019-01-09T13:28:40.599Z,0.30
2019-01-09T13:31:06.675Z,0.30
2019-01-09T13:33:32.871Z,0.30
2019-01-09T13:35:58.948Z,0.20
2019-01-09T13:38:25.061Z,0.30
2019-01-09T13:40:51.199Z,0.20
2019-01-09T13:43:17.287Z,0.20
2019-01-09T13:45:43.362Z,0.20
2019-01-09T13:48:09.421Z,0.10
2019-01-09T13:50:35.503Z,0.20
2019-01-09T13:53:01.571Z,0.40
2019-01-09T13:55:27.654Z,0.40
2019-01-09T13:57:53.730Z,0.30
2019-01-09T14:00:21.023Z,0.40
2019-01-09T14:02:47.265Z,0.30
2019-01-09T14:05:13.617Z,0.30
2019-01-09T14:07:39.795Z,0.50
2019-01-09T14:10:11.793Z,0.50
2019-01-09T14:12:37.888Z,0.40
2019-01-09T14:15:07.771Z,0.40
2019-01-09T14:17:33.875Z,0.40
2019-01-09T14:20:00.088Z,0.20
2019-01-09T14:22:32.923Z,0.10
2019-01-09T14:24:54.329Z,0.10
2019-01-09T14:27:20.424Z,0.00
2019-01-09T14:29:46.514Z,0.00
2019-01-09T14:32:12.600Z,0.00
2019-01-09T14:34:38.669Z,-0.10
2019-01-09T14:37:04.764Z,-0.20
2019-01-09T14:39:30.838Z,-0.30
2019-01-09T14:41:56.903Z,-0.30
2019-01-09T14:44:22.996Z,-0.20
2019-01-09T14:46:49.075Z,-0.20
2019-01-09T14:49:15.167Z,-0.40
2019-01-09T14:51:43.288Z,-0.40
2019-01-09T14:54:09.212Z,-0.50
2019-01-09T14:56:35.304Z,-0.60
2019-01-09T14:59:01.410Z,-0.60
2019-01-09T15:01:27.516Z,-0.60
2019-01-09T15:03:53.588Z,-0.60
2019-01-09T15:06:19.729Z,-0.60
2019-01-09T15:08:45.831Z,-0.60
2019-01-09T15:11:11.913Z,-0.70
2019-01-09T15:13:37.983Z,-0.60
2019-01-09T15:16:04.275Z,-0.50
2019-01-09T15:18:30.340Z,-0.70
2019-01-09T15:20:56.393Z,-0.50
2019-01-09T15:23:22.470Z,-0.50
2019-01-09T15:25:49.146Z,-0.60
2019-01-09T15:28:15.339Z,-0.50
2019-01-09T15:30:41.422Z,-0.70
2019-01-09T15:33:07.504Z,-0.60
2019-01-09T15:35:33.566Z,-0.70
2019-01-09T15:37:59.647Z,-0.80
2019-01-09T15:40:27.723Z,-0.70
2019-01-09T15:42:54.004Z,-0.70
2019-01-09T15:45:20.076Z,-0.80
2019-01-09T15:47:46.142Z,-0.80
2019-01-09T15:50:20.514Z,-0.70
2019-01-09T15:52:46.589Z,-0.70
2019-01-09T15:55:14.484Z,-0.80
2019-01-09T15:57:41.348Z,-0.90
2019-01-09T16:00:13.721Z,-0.80
2019-01-09T16:02:39.807Z,-1.00
2019-01-09T16:05:06.593Z,-1.00
2019-01-09T16:07:32.679Z,-1.00
2019-01-09T16:09:58.749Z,-1.00
2019-01-09T16:12:24.848Z,-1.00
2019-01-09T16:14:50.924Z,-1.00
2019-01-09T16:17:16.996Z,-0.90
2019-01-09T16:19:43.079Z,-1.00
2019-01-09T16:22:09.148Z,-1.00
2019-01-09T16:24:35.268Z,-0.80
2019-01-09T16:27:01.331Z,-0.90
2019-01-09T16:29:27.431Z,-0.90
2019-01-09T16:31:53.503Z,-0.90
2019-01-09T16:34:19.574Z,-0.90
2019-01-09T16:36:45.652Z,-0.90
2019-01-09T16:39:12.603Z,-0.90
2019-01-09T16:41:38.691Z,-0.90
2019-01-09T16:44:04.858Z,-1.00
2019-01-09T16:46:30.948Z,-0.80
2019-01-09T16:48:57.047Z,-0.90
2019-01-09T16:51:23.115Z,-0.90
2019-01-09T16:53:49.310Z,-0.90
2019-01-09T16:56:15.479Z,-0.80
2019-01-09T16:58:41.567Z,-0.80
2019-01-09T17:01:07.735Z,-0.80
2019-01-09T17:03:33.910Z,-0.90
2019-01-09T17:06:00.099Z,-0.90
2019-01-09T17:08:26.268Z,-0.80
2019-01-09T17:10:52.395Z,-0.80
2019-01-09T17:13:18.634Z,-0.90
2019-01-09T17:15:45.073Z,-0.80
2019-01-09T17:18:11.307Z,-0.90
2019-01-09T17:20:37.543Z,-0.90
2019-01-09T17:23:03.695Z,-1.00
2019-01-09T17:25:29.886Z,-1.00
2019-01-09T17:27:56.064Z,-1.00
2019-01-09T17:30:30.667Z,-0.90
2019-01-09T17:32:56.881Z,-0.80
2019-01-09T17:35:23.007Z,-0.90
2019-01-09T17:37:49.099Z,-0.90
2019-01-09T17:40:17.465Z,-1.10
2019-01-09T17:42:43.651Z,-0.90
2019-01-09T17:45:09.955Z,-0.90
2019-01-09T17:47:36.115Z,-0.90
2019-01-09T17:50:05.996Z,-0.90
2019-01-09T17:52:32.101Z,-0.90
2019-01-09T17:54:58.167Z,-0.90
2019-01-09T17:57:24.588Z,-0.90
2019-01-09T17:59:50.761Z,-0.90
2019-01-09T18:02:16.933Z,-0.90
2019-01-09T18:04:43.018Z,-1.00
2019-01-09T18:07:09.184Z,-1.00
2019-01-09T18:09:35.263Z,-1.00
2019-01-09T18:12:01.648Z,-1.00
2019-01-09T18:14:27.710Z,-1.00
2019-01-09T18:16:53.791Z,-1.00
2019-01-09T18:19:19.868Z,-1.00
2019-01-09T18:21:45.955Z,-0.90
2019-01-09T18:24:12.036Z,-0.90
2019-01-09T18:26:38.134Z,-0.90
2019-01-09T18:29:04.204Z,-0.90
2019-01-09T18:31:37.172Z,-0.90
2019-01-09T18:34:07.054Z,-0.90
2019-01-09T18:36:51.781Z,-0.80
2019-01-09T18:39:39.833Z,-0.80
2019-01-09T18:42:12.663Z,-0.70
2019-01-09T18:44:42.647Z,-0.80
2019-01-09T18:47:15.529Z,-0.80
2019-01-09T18:50:11.310Z,-0.80
2019-01-09T18:52:41.187Z,-0.90
2019-01-09T18:55:07.560Z,-0.90
2019-01-09T18:57:33.744Z,-0.90
2019-01-09T18:59:59.818Z,-1.00
2019-01-09T19:02:26.044Z,-0.90
2019-01-09T19:04:52.234Z,-0.80
2019-01-09T19:07:18.855Z,-0.90
2019-01-09T19:09:45.038Z,-1.00
2019-01-09T19:12:11.179Z,-1.00
2019-01-09T19:14:37.484Z,-1.00
2019-01-09T19:17:04.162Z,-0.90
2019-01-09T19:19:52.152Z,0.60
2019-01-09T19:22:18.333Z,-0.90
2019-01-09T19:24:44.528Z,-1.00
2019-01-09T19:27:10.620Z,-1.10
2019-01-09T19:29:36.996Z,-1.10
2019-01-09T19:32:03.880Z,-1.10
2019-01-09T19:34:30.248Z,-1.10
2019-01-09T19:36:56.335Z,-1.10
2019-01-09T19:39:22.416Z,-1.00
2019-01-09T19:41:48.492Z,-1.00
2019-01-09T19:44:14.573Z,-1.10
2019-01-09T19:46:40.748Z,-1.10
2019-01-09T19:49:07.046Z,-1.20
2019-01-09T19:51:33.331Z,-1.20
2019-01-09T19:53:59.509Z,-1.20
2019-01-09T19:56:25.900Z,-1.10
2019-01-09T19:58:51.987Z,-1.00
2019-01-09T20:01:18.160Z,-1.00
2019-01-09T20:03:44.256Z,-1.10
2019-01-09T20:06:10.423Z,-1.10
2019-01-09T20:08:36.603Z,-1.30
2019-01-09T20:11:03.490Z,-1.20
2019-01-09T20:13:29.968Z,-1.30
2019-01-09T20:15:56.216Z,-1.30
2019-01-09T20:18:22.348Z,-1.30
2019-01-09T20:20:48.499Z,-1.30
2019-01-09T20:23:14.595Z,-1.20
2019-01-09T20:25:40.895Z,-1.10
2019-01-09T20:28:06.965Z,-1.10
2019-01-09T20:30:33.060Z,-1.20
2019-01-09T20:32:59.197Z,-1.20
2019-01-09T20:35:25.841Z,-1.20
2019-01-09T20:37:52.005Z,-1.20
2019-01-09T20:40:18.106Z,-1.10
2019-01-09T20:42:44.796Z,-1.10
2019-01-09T20:45:16.501Z,-1.10
2019-01-09T20:47:42.969Z,-1.10
2019-01-09T20:50:13.168Z,-1.20
2019-01-09T20:52:39.335Z,-1.30
2019-01-09T20:55:08.520Z,-1.20
2019-01-09T20:57:34.792Z,-1.30
2019-01-09T21:00:01.085Z,-1.30
2019-01-09T21:02:27.159Z,-1.30
2019-01-09T21:04:53.263Z,-1.30
2019-01-09T21:07:19.427Z,-1.30
2019-01-09T21:09:45.895Z,-1.30
2019-01-09T21:12:11.983Z,-1.30
2019-01-09T21:14:38.072Z,-1.30
2019-01-09T21:17:04.310Z,-1.20
2019-01-09T21:19:30.525Z,-1.20
2019-01-09T21:21:56.624Z,-1.20
2019-01-09T21:24:22.710Z,-1.20
2019-01-09T21:26:49.003Z,-1.20
2019-01-09T21:29:15.183Z,-1.10
2019-01-09T21:31:41.246Z,-1.10
2019-01-09T21:34:07.336Z,-1.10
2019-01-09T21:36:33.414Z,-1.10
2019-01-09T21:38:59.471Z,-1.10
2019-01-09T21:41:25.559Z,-1.20
2019-01-09T21:43:51.628Z,-1.30
2019-01-09T21:46:17.819Z,-1.30
2019-01-09T21:48:43.890Z,-1.30
2019-01-09T21:51:09.967Z,-1.30
2019-01-09T21:53:36.053Z,-1.20
2019-01-09T21:56:03.218Z,-1.30
2019-01-09T21:58:29.283Z,-1.20
2019-01-09T22:00:55.372Z,-1.30
2019-01-09T22:03:21.441Z,-1.10
2019-01-09T22:05:47.729Z,-1.10
2019-01-09T22:08:14.015Z,-1.10
2019-01-09T22:10:40.085Z,-1.20
2019-01-09T22:13:06.164Z,-1.20
2019-01-09T22:15:32.458Z,-1.20
2019-01-09T22:17:58.675Z,-1.30
2019-01-09T22:20:24.763Z,-1.30
2019-01-09T22:22:51.132Z,-1.30
2019-01-09T22:25:17.515Z,-1.40
2019-01-09T22:27:43.679Z,-1.40
2019-01-09T22:30:22.370Z,-1.30
2019-01-09T22:32:48.555Z,-1.30
2019-01-09T22:35:14.735Z,-1.30
2019-01-09T22:37:40.816Z,-1.30
2019-01-09T22:40:13.389Z,-1.30
2019-01-09T22:42:39.466Z,-1.30
2019-01-09T22:45:08.039Z,-1.30
2019-01-09T22:47:34.132Z,-1.20
2019-01-09T22:50:00.259Z,-1.10
2019-01-09T22:52:26.390Z,-1.10
2019-01-09T22:54:52.458Z,-1.20
2019-01-09T22:57:18.588Z,-1.30
2019-01-09T22:59:44.652Z,-1.30
2019-01-09T23:02:11.031Z,-1.30
2019-01-09T23:04:37.203Z,-1.40
2019-01-09T23:07:03.796Z,-1.40
2019-01-09T23:09:29.862Z,-1.40
2019-01-09T23:11:55.974Z,-1.30
2019-01-09T23:14:22.035Z,-1.40
2019-01-09T23:16:48.124Z,-1.40
2019-01-09T23:19:14.314Z,-1.30
2019-01-09T23:21:40.565Z,-1.30
2019-01-09T23:24:06.655Z,-1.30
2019-01-09T23:26:32.779Z,-1.30
2019-01-09T23:28:58.844Z,-1.20
2019-01-09T23:31:24.936Z,-1.20
2019-01-09T23:33:51.203Z,-1.20
2019-01-09T23:36:17.299Z,-1.10
2019-01-09T23:38:43.368Z,-1.20
2019-01-09T23:41:09.460Z,-1.20
2019-01-09T23:43:35.529Z,-1.10
2019-01-09T23:46:01.810Z,-1.20
2019-01-09T23:48:27.881Z,-1.20
2019-01-09T23:50:54.052Z,-1.30
2019-01-09T23:53:20.135Z,-1.40
2019-01-09T23:55:46.218Z,-1.40
2019-01-09T23:58:12.295Z,-1.30
